This is the latest recevied weather packets stored in our database for station/object KF6YUA. If no packets are shown the sender has not sent any weather packets the latest 10 day(s).
| Time | Temp. | Humidity | Pressure | Rain* | Wind** | Luminosity | Snow |
|---|---|---|---|---|---|---|---|
| 1777913565 | 15° C | 85% | 1017.1 hPa | 0 mm | - | 72 W/m² | - |
| 1777913261 | 15° C | 87% | 1017.3 hPa | 0 mm | - | 76 W/m² | - |
| 1777912959 | 15° C | 88% | 1017.2 hPa | 0 mm | - | 125 W/m² | - |
| 1777912654 | 14.44° C | 86% | 1017.4 hPa | 0 mm | - | 119 W/m² | - |
| 1777912351 | 14.44° C | 86% | 1017.2 hPa | 0 mm | - | 120 W/m² | - |
| 1777912047 | 15° C | 83% | 1017.2 hPa | 0 mm | - | 89 W/m² | - |
| 1777911743 | 16.11° C | 80% | 1017.2 hPa | 0 mm | - | 98 W/m² | - |
| 1777911440 | 16.11° C | 77% | 1017.3 hPa | 0 mm | - | 111 W/m² | - |
| 1777911137 | 15.56° C | 78% | 1017.1 hPa | 0 mm | - | 116 W/m² | - |
| 1777910834 | 14.44° C | 82% | 1017.3 hPa | 0 mm | - | 121 W/m² | - |
| 1777910531 | 15° C | 80% | 1017.2 hPa | 0 mm | - | 132 W/m² | - |
| 1777910228 | 16.11° C | 78% | 1017.4 hPa | 0 mm | - | 131 W/m² | - |
| 1777909925 | 15° C | 80% | 1017.3 hPa | 0 mm | - | 135 W/m² | - |
| 1777909621 | 14.44° C | 84% | 1017.3 hPa | 0 mm | - | 168 W/m² | - |
| 1777909319 | 13.33° C | 88% | 1017.1 hPa | 0 mm | - | 192 W/m² | - |
| 1777909017 | 13.33° C | 87% | 1017.3 hPa | 0 mm | - | 147 W/m² | - |
| 1777908714 | 12.78° C | 87% | 1017.5 hPa | 0 mm | - | 86 W/m² | - |
| 1777908411 | 13.33° C | 87% | 1017.3 hPa | 0 mm | - | 77 W/m² | - |
| 1777908108 | 13.89° C | 89% | 1017.3 hPa | 0 mm | - | 166 W/m² | - |
| 1777907804 | 13.89° C | 88% | 1017.2 hPa | 0 mm | - | 125 W/m² | - |
| 1777907499 | 13.33° C | 90% | 1017.1 hPa | 0 mm | - | 114 W/m² | - |
| 1777907196 | 12.78° C | 95% | 1017.1 hPa | 0 mm | - | 132 W/m² | - |
| 1777906893 | 12.22° C | 98% | 1017.1 hPa | 0 mm | - | 126 W/m² | - |
| 1777906591 | 12.22° C | 99% | 1017.1 hPa | 0 mm | - | 141 W/m² | - |
| 1777906286 | 11.11° C | 99% | 1017.2 hPa | 0 mm | - | 108 W/m² | - |
* Rain latest hour (hover to see other rain measurements)
** Current wind speed in m/s (hover to see current wind gust speed)